Latest Coastal Weather Observations for Nullarbor

IDS60701

Issued at 10:02 pm CDT Friday 27 February 2015 (issued every 10 minutes, with the page automatically refreshed every 10 minutes)

About coastal observations | Map of coastal stations | Coastal observations for SA | Marine services | Other Formats
Station Details ID: 018106 Name: NULLARBOR Lat: -31.45 Lon: 130.90 Height: 64.0 m
Data from the previous 72 hours. | See also: Recent months at Nullarbor
Date/Time
CDT
Temp

°C
Wind Pressure Rain
since 9am
mm
Weather Cloud Vis
km
Sea
Height
m
Swell
Dir
 
Speed
knots
Gust
knots
hPa Trend Height
m
Period
s
Dir
27/10:00pm 23.6 SE 10 12 1004.5 - 0.4 - - 10 - - - -
27/09:30pm 23.3 SE 9 11 1004.0 - 0.4 - - 10 - - - -
27/09:00pm 23.4 SE 10 14 1003.7 - 0.4 - - 10 - - - -
27/08:30pm 25.1 SE 11 15 1003.1 - 0.4 - - 10 - - - -
27/08:00pm 27.4 SE 11 15 1002.9 - 0.4 - - 10 - - - -
27/07:30pm 28.7 SE 13 16 1002.7 - 0.4 - - 10 - - - -
27/07:00pm 31.4 SSE 12 14 1002.7 - 0.4 - - 10 - - - -
27/06:30pm 31.9 SSE 12 14 1002.5 - 0.4 - Partly cloudy 10 - - - -
27/06:00pm 32.8 SSE 13 15 1002.5 - 0.4 - Partly cloudy 10 - - - -
27/05:54pm 33.6 S 13 16 1002.4 - 0.4 - Partly cloudy 10 - - - -
27/05:30pm 38.9 WNW 13 23 1002.1 - 0.4 - Partly cloudy 10 - - - -
27/05:00pm 38.1 NW 15 23 1002.3 - 0.4 - - 10 - - - -
27/04:30pm 37.9 NNW 16 23 1002.7 - 0.4 - - 10 - - - -
27/04:00pm 37.3 NNW 12 17 1002.8 - 0.4 - - 10 - - - -
27/03:30pm 36.7 NNW 14 23 1003.2 - 0.4 - - 10 - - - -
27/03:00pm 36.0 NNW 14 19 1003.7 - 0.4 - Cloudy 10 - - - -
27/02:30pm 33.6 NNE 8 12 1004.4 - 0.4 - Cloudy 10 - - - -
27/02:00pm 32.6 NNE 9 14 1004.8 - 0.4 - Partly cloudy 10 - - - -
27/01:30pm 31.2 NNE 5 8 1005.2 - 0.4 - Partly cloudy 10 - - - -
27/01:00pm 30.1 NNE 5 6 1005.5 - 0.4 - Cloudy 10 - - - -
27/12:30pm 29.2 NE 3 6 1005.9 - 0.4 - Partly cloudy 10 - - - -
27/12:00pm 26.8 CALM 0 1 1006.3 - 0.4 - Mostly cloudy 10 - - - -
27/11:30am 25.7 ESE 1 4 1006.7 - 0.4 - Partly cloudy 10 - - - -
27/11:00am 24.9 ESE 5 6 1006.8 - 0.4 - Partly cloudy 10 - - - -
27/10:30am 24.0 NE 3 6 1006.9 - 0.4 - Partly cloudy 10 - - - -
27/10:00am 22.4 NW 2 4 1007.7 - 0.4 - Partly cloudy 10 - - - -
27/09:30am 21.2 NW 5 7 1007.8 - 0.4 - Partly cloudy 10 - - - -
27/09:00am 22.3 WSW 8 12 1007.8 - 0.0 - Cloudy 10 - - - -
27/08:30am 24.2 WNW 9 11 1008.3 - 0.0 - Partly cloudy 10 - - - -
27/08:00am 24.3 WNW 9 12 1008.4 - 0.0 - - 10 - - - -
27/07:30am 24.4 NW 11 18 1007.7 - 0.0 - - 10 - - - -
27/07:20am 24.5 NW 13 21 1008.2 - 0.0 - - 10 - - - -
27/07:00am 23.9 ENE 6 7 1006.4 - 0.0 - Partly cloudy 10 - - - -
27/06:30am 23.9 NE 7 8 1005.6 - 0.0 - Cloudy 10 - - - -
27/06:00am 23.0 ENE 7 9 1005.1 - 0.0 - Cloudy 10 - - - -
27/05:30am 21.7 E 6 7 1004.9 - 0.0 - - 10 - - - -
27/05:00am 21.6 ENE 6 7 1004.7 - 0.0 - - 10 - - - -
27/04:30am 21.6 ESE 7 8 1004.9 - 0.0 - Partly cloudy 10 - - - -
27/04:00am 22.0 ESE 7 9 1005.1 - 0.0 - Cloudy 10 - - - -
27/03:30am 22.4 SE 9 10 1005.1 - 0.0 - Partly cloudy 10 - - - -
27/03:00am 23.5 SE 11 14 1005.4 - 0.0 - Cloudy 10 - - - -
27/02:30am 22.9 SE 3 6 1006.5 - 0.0 - Partly cloudy 10 - - - -
27/02:00am 23.0 SE 8 9 1006.4 - 0.0 - - 10 - - - -
27/01:30am 23.1 SE 9 11 1006.6 - 0.0 - Partly cloudy 10 - - - -
27/01:00am 22.7 SE 9 11 1007.0 - 0.0 - Partly cloudy 10 - - - -
27/12:30am 21.9 SE 8 9 1007.2 - 0.0 - - 10 - - - -
27/12:00am 21.6 SE 9 11 1007.3 - 0.0 - Partly cloudy 10 - - - -
 
Date/Time
CDT
Temp

°C
Wind Pressure Rain
since 9am
mm
Weather Cloud Vis
km
Sea
Height
m
Swell
Dir
 
Speed
knots
Gust
knots
hPa Trend Height
m
Period
s
Dir
26/11:30pm 21.8 SE 10 12 1007.7 - 0.0 - - 10 - - - -
26/11:00pm 21.9 SE 10 12 1007.8 - 0.0 - - 10 - - - -
26/10:30pm 22.6 SE 11 13 1007.8 - 0.0 - - 10 - - - -
26/10:00pm 23.1 SE 11 13 1007.6 - 0.0 - - 10 - - - -
26/09:30pm 23.5 ESE 12 16 1007.7 - 0.0 - - 10 - - - -
26/09:00pm 24.1 SE 12 15 1007.7 - 0.0 - Mostly cloudy 10 - - - -
26/08:30pm 24.9 ESE 13 17 1007.6 - 0.0 - - 10 - - - -
26/08:00pm 26.5 SE 14 19 1007.6 - 0.0 - - 10 - - - -
26/07:30pm 28.4 SE 15 19 1007.5 - 0.0 - - 10 - - - -
26/07:00pm 29.3 SE 17 20 1007.4 - 0.0 - - 10 - - - -
26/06:30pm 29.2 SE 16 19 1007.3 - 0.0 - - 10 - - - -
26/06:00pm 31.2 SE 17 21 1007.3 - 0.0 - Mostly cloudy 10 - - - -
26/05:30pm 31.3 SE 16 19 1007.5 - 0.0 - - 10 - - - -
26/05:00pm 33.2 SE 15 19 1007.8 - 0.0 - - 10 - - - -
26/04:30pm 33.8 SE 15 19 1008.2 - 0.0 - - 10 - - - -
26/04:00pm 35.5 SE 14 18 1008.5 - 0.0 - - 10 - - - -
26/03:30pm 35.9 SE 13 17 1008.8 - 0.0 - - 10 - - - -
26/03:00pm 35.2 SE 15 20 1009.1 - 0.0 - Partly cloudy 10 - - - -
26/02:30pm 36.9 SE 9 18 1009.4 - 0.0 - - 10 - - - -
26/02:00pm 37.4 ENE 7 10 1009.8 - 0.0 - - 10 - - - -
26/01:30pm 36.4 ENE 7 13 1010.2 - 0.0 - - 10 - - - -
26/01:00pm 35.6 NNE 7 12 1010.8 - 0.0 - - 10 - - - -
26/12:30pm 34.7 ENE 9 13 1011.2 - 0.0 - - 10 - - - -
26/12:00pm 33.3 NE 11 15 1011.4 - 0.0 - - 10 - - - -
26/11:30am 32.1 NE 11 15 1011.6 - 0.0 - - 10 - - - -
26/11:00am 29.9 NE 13 17 1011.7 - 0.0 - - 10 - - - -
26/10:30am 27.7 NE 11 14 1012.0 - 0.0 - - 10 - - - -
26/10:00am 24.8 NE 8 11 1012.3 - 0.0 - - 10 - - - -
26/09:30am 22.9 ENE 8 10 1012.3 - 0.0 - - 10 - - - -
26/09:00am 21.6 ENE 9 12 1012.3 - 0.0 - Mostly cloudy 10 - - - -
26/08:30am 21.3 E 8 12 1012.0 - 0.0 - - 10 - - - -
26/08:00am 21.3 NE 8 11 1011.5 - 0.0 - - 10 - - - -
26/07:30am 20.8 NNE 11 14 1010.5 - 0.0 - - 10 - - - -
26/07:00am 19.9 NE 9 12 1010.4 - 0.0 - - 10 - - - -
26/06:30am 19.1 NE 8 10 1010.5 - 0.0 - - 10 - - - -
26/06:00am 18.4 NE 7 8 1010.6 - 0.0 - Cloudy 10 - - - -
26/05:30am 17.9 NE 8 9 1010.4 - 0.0 - - 10 - - - -
26/05:00am 17.5 NE 8 9 1010.6 - 0.0 - - 10 - - - -
26/04:30am 18.1 ENE 6 7 1010.9 - 0.0 - - 10 - - - -
26/04:00am 19.3 E 6 8 1011.1 - 0.0 - - 10 - - - -
26/03:30am 19.9 ENE 6 8 1011.3 - 0.0 - - 10 - - - -
26/03:00am 19.8 E 6 8 1011.2 - 0.0 - Cloudy 10 - - - -
26/02:30am 19.8 ESE 8 9 1011.4 - 0.0 - - 10 - - - -
26/02:00am 19.7 ESE 9 11 1011.8 - 0.0 - - 10 - - - -
26/01:30am 19.9 ESE 9 12 1012.2 - 0.0 - - 10 - - - -
26/01:00am 19.9 ESE 9 10 1012.7 - 0.0 - - 10 - - - -
26/12:30am 20.4 ESE 9 12 1012.8 - 0.0 - - 10 - - - -
26/12:00am 20.7 ESE 11 13 1013.0 - 0.0 - Mostly cloudy 10 - - - -
 
Date/Time
CDT
Temp

°C
Wind Pressure Rain
since 9am
mm
Weather Cloud Vis
km
Sea
Height
m
Swell
Dir
 
Speed
knots
Gust
knots
hPa Trend Height
m
Period
s
Dir
25/11:30pm 20.7 ESE 10 13 1013.5 - 0.0 - - 10 - - - -
25/11:00pm 21.2 SE 11 13 1013.5 - 0.0 - - 10 - - - -
25/10:30pm 21.6 SE 12 15 1013.4 - 0.0 - - 10 - - - -
25/10:00pm 21.2 ESE 10 13 1013.2 - 0.0 - - 10 - - - -
25/09:30pm 20.9 ESE 9 11 1013.1 - 0.0 - - 10 - - - -
25/09:00pm 21.3 SE 11 15 1013.0 - 0.0 - Cloudy 10 - - - -
25/08:30pm 22.1 SE 13 17 1012.9 - 0.0 - - 10 - - - -
25/08:00pm 23.5 SE 13 15 1012.8 - 0.0 - - 10 - - - -
25/07:30pm 24.2 SE 13 15 1012.6 - 0.0 - - 10 - - - -
25/07:00pm 25.6 SE 14 16 1012.3 - 0.0 - - 10 - - - -
25/06:30pm 26.4 SE 15 18 1012.4 - 0.0 - - 10 - - - -
25/06:00pm 27.4 SE 15 18 1012.3 - 0.0 - - 10 - - - -
25/05:30pm 27.9 SSE 17 20 1012.1 - 0.0 - - 10 - - - -
25/05:00pm 29.3 SSE 17 20 1012.1 - 0.0 - - 10 - - - -
25/04:30pm 30.9 SSE 15 18 1012.0 - 0.0 - - 10 - - - -
25/04:00pm 29.9 SSE 16 19 1012.3 - 0.0 - - 10 - - - -
25/03:30pm 31.1 SSE 15 19 1012.2 - 0.0 - - 10 - - - -
25/03:12pm 32.6 SSE 15 19 1012.3 - 0.0 - - 10 - - - -
25/03:00pm 34.8 WSW 5 8 1012.3 - 0.0 - - 10 - - - -
25/02:30pm 33.7 E 4 6 1012.9 - 0.0 - - 10 - - - -
25/02:00pm 33.7 NNE 6 10 1013.2 - 0.0 - - 10 - - - -
25/01:30pm 32.5 NE 6 11 1013.5 - 0.0 - - 10 - - - -
25/01:00pm 31.4 N 7 10 1014.1 - 0.0 - - 10 - - - -
25/12:30pm 30.4 NE 9 14 1014.6 - 0.0 - - 10 - - - -
25/12:00pm 28.5 NNE 11 15 1015.0 - 0.0 - - 10 - - - -
25/11:30am 26.9 NNE 11 14 1015.6 - 0.0 - - 10 - - - -
25/11:00am 25.2 NNE 11 16 1016.1 - 0.0 - - 10 - - - -
25/10:30am 22.4 NE 12 14 1016.3 - 0.0 - - 10 - - - -
25/10:00am 20.3 ENE 10 13 1016.3 - 0.0 - - 10 - - - -
25/09:30am 18.4 ENE 11 13 1016.4 - 0.0 - - 10 - - - -
25/09:00am 15.6 ENE 7 10 1016.4 - 0.0 - - 10 - - - -
25/08:30am 14.1 E 7 9 1016.2 - 0.0 - - 10 - - - -
25/08:00am 13.1 E 7 8 1016.1 - 0.0 - - 9 - - - -
25/07:54am 12.8 E 7 8 1016.0 - 0.0 - - 8 - - - -
25/07:30am 12.1 E 7 8 1015.8 - 0.0 - - 7 - - - -
25/07:00am 11.5 E 7 8 1015.8 - 0.0 - - 5 - - - -
25/06:30am 10.9 E 7 8 1015.4 - 0.0 - - 6 - - - -
25/06:00am 11.0 ENE 7 8 1015.5 - 0.0 - - 6 - - - -
25/05:30am 11.6 NE 7 7 1015.6 - 0.0 - - 6 - - - -
25/05:00am 11.8 NE 7 7 1015.8 - 0.0 - - 6 - - - -
25/04:30am 12.8 E 6 7 1015.6 - 0.0 - - 7 - - - -
25/04:24am 13.2 E 7 9 1015.5 - 0.0 - - 7 - - - -
25/04:00am 13.7 SE 7 8 1015.6 - 0.0 - - 8 - - - -
25/03:30am 13.7 ESE 7 9 1015.9 - 0.0 - - 8 - - - -
25/03:00am 14.4 E 7 8 1016.4 - 0.0 - Partly cloudy 9 - - - -
25/02:30am 15.1 ESE 8 10 1016.5 - 0.0 - - 9 - - - -
25/02:00am 15.6 ESE 10 12 1016.8 - 0.0 - - 9 - - - -
25/01:30am 15.6 ESE 8 10 1017.4 - 0.0 - - 10 - - - -
25/01:00am 16.0 ESE 10 12 1017.6 - 0.0 - - 10 - - - -
25/12:30am 16.4 ESE 13 17 1017.9 - 0.0 - - 10 - - - -
25/12:00am 16.6 ESE 13 18 1018.1 - 0.0 - Partly cloudy 10 - - - -
 
Date/Time
CDT
Temp

°C
Wind Pressure Rain
since 9am
mm
Weather Cloud Vis
km
Sea
Height
m
Swell
Dir
 
Speed
knots
Gust
knots
hPa Trend Height
m
Period
s
Dir
24/11:30pm 16.9 ESE 13 18 1018.6 - 0.0 - - 10 - - - -
24/11:00pm 17.0 ESE 15 20 1018.5 - 0.0 - - 10 - - - -
24/10:30pm 17.2 SE 16 20 1018.4 - 0.0 - - 10 - - - -

Other Formats:

Comma delimited format used in spreadsheet applications
http://www.bom.gov.au/fwo/IDS60701/IDS60701.94651.axf

JavaScript Object Notation format (JSON) in row-major order
http://www.bom.gov.au/fwo/IDS60701/IDS60701.94651.json